sensor_id;sensor_type;location;lat;lon;timestamp;P1;durP1;ratioP1;P2;durP2;ratioP2
30420;SDS011;17218;54.070;10.012;2023-03-01T00:01:13;16.60;;;9.97;;
30420;SDS011;17218;54.070;10.012;2023-03-01T00:03:40;15.07;;;9.87;;
30420;SDS011;17218;54.070;10.012;2023-03-01T00:06:07;18.27;;;10.27;;
30420;SDS011;17218;54.070;10.012;2023-03-01T00:08:35;18.87;;;11.40;;
30420;SDS011;17218;54.070;10.012;2023-03-01T00:11:03;18.20;;;11.43;;
30420;SDS011;17218;54.070;10.012;2023-03-01T00:13:31;24.40;;;12.50;;
30420;SDS011;17218;54.070;10.012;2023-03-01T00:15:58;20.10;;;12.27;;
30420;SDS011;17218;54.070;10.012;2023-03-01T00:18:24;24.67;;;11.83;;
30420;SDS011;17218;54.070;10.012;2023-03-01T00:20:52;28.03;;;13.30;;
30420;SDS011;17218;54.070;10.012;2023-03-01T00:23:19;22.33;;;12.20;;
30420;SDS011;17218;54.070;10.012;2023-03-01T00:25:48;21.80;;;12.50;;
30420;SDS011;17218;54.070;10.012;2023-03-01T00:28:15;31.23;;;14.40;;
30420;SDS011;17218;54.070;10.012;2023-03-01T00:30:42;31.10;;;14.13;;
30420;SDS011;17218;54.070;10.012;2023-03-01T00:33:08;30.00;;;14.23;;
30420;SDS011;17218;54.070;10.012;2023-03-01T00:35:35;27.20;;;15.07;;
30420;SDS011;17218;54.070;10.012;2023-03-01T00:38:02;28.10;;;12.93;;
30420;SDS011;17218;54.070;10.012;2023-03-01T00:40:29;25.43;;;14.37;;
30420;SDS011;17218;54.070;10.012;2023-03-01T00:42:59;31.87;;;15.23;;
30420;SDS011;17218;54.070;10.012;2023-03-01T00:45:26;37.13;;;15.87;;
30420;SDS011;17218;54.070;10.012;2023-03-01T00:47:53;25.87;;;14.93;;
30420;SDS011;17218;54.070;10.012;2023-03-01T00:50:20;47.63;;;15.43;;
30420;SDS011;17218;54.070;10.012;2023-03-01T00:52:46;31.43;;;15.63;;
30420;SDS011;17218;54.070;10.012;2023-03-01T00:55:13;31.07;;;15.90;;
30420;SDS011;17218;54.070;10.012;2023-03-01T00:57:39;24.67;;;14.87;;
30420;SDS011;17218;54.070;10.012;2023-03-01T01:00:08;24.27;;;14.47;;
30420;SDS011;17218;54.070;10.012;2023-03-01T01:02:36;28.10;;;13.80;;
30420;SDS011;17218;54.070;10.012;2023-03-01T01:05:03;25.40;;;13.63;;
30420;SDS011;17218;54.070;10.012;2023-03-01T01:07:30;40.63;;;13.73;;
30420;SDS011;17218;54.070;10.012;2023-03-01T01:09:57;27.00;;;13.73;;
30420;SDS011;17218;54.070;10.012;2023-03-01T01:12:23;27.73;;;13.57;;
30420;SDS011;17218;54.070;10.012;2023-03-01T01:14:50;34.57;;;14.07;;
30420;SDS011;17218;54.070;10.012;2023-03-01T01:17:18;26.43;;;13.00;;
30420;SDS011;17218;54.070;10.012;2023-03-01T01:19:44;24.47;;;12.20;;
30420;SDS011;17218;54.070;10.012;2023-03-01T01:22:11;23.87;;;13.27;;
30420;SDS011;17218;54.070;10.012;2023-03-01T01:24:37;21.13;;;12.70;;
30420;SDS011;17218;54.070;10.012;2023-03-01T01:27:04;21.53;;;13.43;;
30420;SDS011;17218;54.070;10.012;2023-03-01T01:29:30;21.27;;;13.13;;
30420;SDS011;17218;54.070;10.012;2023-03-01T01:31:57;26.50;;;13.73;;
30420;SDS011;17218;54.070;10.012;2023-03-01T01:34:25;23.43;;;12.70;;
30420;SDS011;17218;54.070;10.012;2023-03-01T01:36:52;24.93;;;13.27;;
30420;SDS011;17218;54.070;10.012;2023-03-01T01:39:19;29.97;;;13.87;;
30420;SDS011;17218;54.070;10.012;2023-03-01T01:41:46;23.13;;;13.33;;
30420;SDS011;17218;54.070;10.012;2023-03-01T01:44:14;21.47;;;13.43;;
30420;SDS011;17218;54.070;10.012;2023-03-01T01:46:43;26.47;;;13.27;;
30420;SDS011;17218;54.070;10.012;2023-03-01T01:49:15;24.87;;;12.67;;
30420;SDS011;17218;54.070;10.012;2023-03-01T01:51:49;34.77;;;12.73;;
30420;SDS011;17218;54.070;10.012;2023-03-01T01:54:22;49.87;;;13.73;;
30420;SDS011;17218;54.070;10.012;2023-03-01T01:56:52;17.10;;;10.70;;
30420;SDS011;17218;54.070;10.012;2023-03-01T01:59:22;24.10;;;11.20;;
30420;SDS011;17218;54.070;10.012;2023-03-01T02:01:51;19.47;;;11.73;;
30420;SDS011;17218;54.070;10.012;2023-03-01T02:04:17;19.23;;;10.40;;
30420;SDS011;17218;54.070;10.012;2023-03-01T02:06:44;25.47;;;11.23;;
30420;SDS011;17218;54.070;10.012;2023-03-01T02:09:19;27.00;;;10.63;;
30420;SDS011;17218;54.070;10.012;2023-03-01T02:11:47;24.00;;;11.40;;
30420;SDS011;17218;54.070;10.012;2023-03-01T02:14:16;19.70;;;10.67;;
30420;SDS011;17218;54.070;10.012;2023-03-01T02:16:43;17.87;;;11.27;;
30420;SDS011;17218;54.070;10.012;2023-03-01T02:19:10;21.57;;;10.90;;
30420;SDS011;17218;54.070;10.012;2023-03-01T02:21:45;16.93;;;10.63;;
30420;SDS011;17218;54.070;10.012;2023-03-01T02:24:24;17.87;;;10.30;;
30420;SDS011;17218;54.070;10.012;2023-03-01T02:26:59;14.27;;;9.50;;
30420;SDS011;17218;54.070;10.012;2023-03-01T02:29:28;29.20;;;10.93;;
30420;SDS011;17218;54.070;10.012;2023-03-01T02:31:55;18.90;;;10.47;;
30420;SDS011;17218;54.070;10.012;2023-03-01T02:34:23;39.37;;;10.30;;
30420;SDS011;17218;54.070;10.012;2023-03-01T02:36:52;28.10;;;10.53;;
30420;SDS011;17218;54.070;10.012;2023-03-01T02:39:23;15.67;;;10.43;;
30420;SDS011;17218;54.070;10.012;2023-03-01T02:41:53;22.33;;;10.47;;
30420;SDS011;17218;54.070;10.012;2023-03-01T02:44:22;19.30;;;11.20;;
30420;SDS011;17218;54.070;10.012;2023-03-01T02:46:50;19.93;;;10.97;;
30420;SDS011;17218;54.070;10.012;2023-03-01T02:49:20;18.67;;;10.60;;
30420;SDS011;17218;54.070;10.012;2023-03-01T02:51:52;14.33;;;11.00;;
30420;SDS011;17218;54.070;10.012;2023-03-01T02:54:33;23.90;;;10.37;;
30420;SDS011;17218;54.070;10.012;2023-03-01T02:57:06;14.83;;;10.00;;
30420;SDS011;17218;54.070;10.012;2023-03-01T02:59:33;15.47;;;10.13;;
30420;SDS011;17218;54.070;10.012;2023-03-01T03:02:05;18.07;;;9.73;;
30420;SDS011;17218;54.070;10.012;2023-03-01T03:04:32;17.07;;;9.20;;
30420;SDS011;17218;54.070;10.012;2023-03-01T03:06:58;25.10;;;10.00;;
30420;SDS011;17218;54.070;10.012;2023-03-01T03:09:25;47.07;;;10.23;;
30420;SDS011;17218;54.070;10.012;2023-03-01T03:11:51;16.57;;;8.23;;
30420;SDS011;17218;54.070;10.012;2023-03-01T03:14:18;12.40;;;8.07;;
30420;SDS011;17218;54.070;10.012;2023-03-01T03:16:45;12.87;;;9.13;;
30420;SDS011;17218;54.070;10.012;2023-03-01T03:19:14;22.47;;;10.17;;
30420;SDS011;17218;54.070;10.012;2023-03-01T03:21:41;13.27;;;8.70;;
30420;SDS011;17218;54.070;10.012;2023-03-01T03:24:08;30.50;;;9.83;;
30420;SDS011;17218;54.070;10.012;2023-03-01T03:26:34;25.73;;;9.17;;
30420;SDS011;17218;54.070;10.012;2023-03-01T03:29:01;12.67;;;8.80;;
30420;SDS011;17218;54.070;10.012;2023-03-01T03:31:27;13.07;;;8.93;;
30420;SDS011;17218;54.070;10.012;2023-03-01T03:33:54;12.67;;;8.57;;
30420;SDS011;17218;54.070;10.012;2023-03-01T03:36:23;18.00;;;9.33;;
30420;SDS011;17218;54.070;10.012;2023-03-01T03:38:51;14.90;;;8.50;;
30420;SDS011;17218;54.070;10.012;2023-03-01T03:41:17;12.47;;;8.73;;
30420;SDS011;17218;54.070;10.012;2023-03-01T03:43:44;17.73;;;9.47;;
30420;SDS011;17218;54.070;10.012;2023-03-01T03:46:11;14.93;;;9.47;;
30420;SDS011;17218;54.070;10.012;2023-03-01T03:48:39;14.00;;;8.80;;
30420;SDS011;17218;54.070;10.012;2023-03-01T03:51:09;42.60;;;10.47;;
30420;SDS011;17218;54.070;10.012;2023-03-01T03:53:38;22.40;;;9.47;;
30420;SDS011;17218;54.070;10.012;2023-03-01T03:56:05;23.23;;;8.97;;
30420;SDS011;17218;54.070;10.012;2023-03-01T03:58:32;19.33;;;9.50;;
30420;SDS011;17218;54.070;10.012;2023-03-01T04:00:58;15.20;;;9.60;;
30420;SDS011;17218;54.070;10.012;2023-03-01T04:03:26;18.60;;;9.20;;
30420;SDS011;17218;54.070;10.012;2023-03-01T04:05:53;16.13;;;10.07;;
30420;SDS011;17218;54.070;10.012;2023-03-01T04:08:21;13.97;;;9.60;;
30420;SDS011;17218;54.070;10.012;2023-03-01T04:10:50;18.67;;;9.60;;
30420;SDS011;17218;54.070;10.012;2023-03-01T04:13:18;15.20;;;9.30;;
30420;SDS011;17218;54.070;10.012;2023-03-01T04:15:45;13.73;;;8.17;;
30420;SDS011;17218;54.070;10.012;2023-03-01T04:18:13;18.90;;;9.33;;
30420;SDS011;17218;54.070;10.012;2023-03-01T04:20:41;28.83;;;10.57;;
30420;SDS011;17218;54.070;10.012;2023-03-01T04:23:10;33.00;;;10.73;;
30420;SDS011;17218;54.070;10.012;2023-03-01T04:25:41;27.87;;;8.97;;
30420;SDS011;17218;54.070;10.012;2023-03-01T04:28:10;11.43;;;7.80;;
30420;SDS011;17218;54.070;10.012;2023-03-01T04:30:37;19.33;;;9.17;;
30420;SDS011;17218;54.070;10.012;2023-03-01T04:33:05;18.13;;;9.30;;
30420;SDS011;17218;54.070;10.012;2023-03-01T04:35:32;18.23;;;9.20;;
30420;SDS011;17218;54.070;10.012;2023-03-01T04:37:59;15.23;;;10.00;;
30420;SDS011;17218;54.070;10.012;2023-03-01T04:40:26;24.07;;;9.03;;
30420;SDS011;17218;54.070;10.012;2023-03-01T04:42:52;21.53;;;9.53;;
30420;SDS011;17218;54.070;10.012;2023-03-01T04:45:20;14.83;;;8.63;;
30420;SDS011;17218;54.070;10.012;2023-03-01T04:47:47;20.00;;;9.37;;
30420;SDS011;17218;54.070;10.012;2023-03-01T04:50:14;35.50;;;10.47;;
30420;SDS011;17218;54.070;10.012;2023-03-01T04:52:45;33.23;;;12.40;;
30420;SDS011;17218;54.070;10.012;2023-03-01T04:55:13;22.20;;;9.83;;
30420;SDS011;17218;54.070;10.012;2023-03-01T04:57:40;19.13;;;9.90;;
30420;SDS011;17218;54.070;10.012;2023-03-01T05:00:07;17.80;;;9.80;;
30420;SDS011;17218;54.070;10.012;2023-03-01T05:02:46;24.63;;;9.17;;
30420;SDS011;17218;54.070;10.012;2023-03-01T05:05:18;28.80;;;10.30;;
30420;SDS011;17218;54.070;10.012;2023-03-01T05:07:45;23.87;;;9.37;;
30420;SDS011;17218;54.070;10.012;2023-03-01T05:10:11;22.07;;;9.37;;
30420;SDS011;17218;54.070;10.012;2023-03-01T05:12:38;16.20;;;8.97;;
30420;SDS011;17218;54.070;10.012;2023-03-01T05:15:05;14.37;;;9.37;;
30420;SDS011;17218;54.070;10.012;2023-03-01T05:17:32;21.27;;;8.57;;
30420;SDS011;17218;54.070;10.012;2023-03-01T05:20:01;17.80;;;9.60;;
30420;SDS011;17218;54.070;10.012;2023-03-01T05:22:31;16.60;;;10.63;;
30420;SDS011;17218;54.070;10.012;2023-03-01T05:24:58;19.23;;;11.50;;
30420;SDS011;17218;54.070;10.012;2023-03-01T05:27:24;25.80;;;11.30;;
30420;SDS011;17218;54.070;10.012;2023-03-01T05:29:51;22.60;;;10.60;;
30420;SDS011;17218;54.070;10.012;2023-03-01T05:32:17;16.87;;;9.77;;
30420;SDS011;17218;54.070;10.012;2023-03-01T05:34:44;18.67;;;9.30;;
30420;SDS011;17218;54.070;10.012;2023-03-01T05:37:12;29.73;;;9.77;;
30420;SDS011;17218;54.070;10.012;2023-03-01T05:39:39;19.67;;;10.00;;
30420;SDS011;17218;54.070;10.012;2023-03-01T05:42:09;20.00;;;10.77;;
30420;SDS011;17218;54.070;10.012;2023-03-01T05:44:37;24.17;;;9.33;;
30420;SDS011;17218;54.070;10.012;2023-03-01T05:47:04;17.07;;;9.43;;
30420;SDS011;17218;54.070;10.012;2023-03-01T05:49:31;22.37;;;9.53;;
30420;SDS011;17218;54.070;10.012;2023-03-01T05:51:58;18.87;;;8.80;;
30420;SDS011;17218;54.070;10.012;2023-03-01T05:54:25;14.30;;;8.73;;
30420;SDS011;17218;54.070;10.012;2023-03-01T05:56:52;21.17;;;9.57;;
30420;SDS011;17218;54.070;10.012;2023-03-01T05:59:18;19.27;;;8.97;;
30420;SDS011;17218;54.070;10.012;2023-03-01T06:01:45;20.37;;;8.70;;
30420;SDS011;17218;54.070;10.012;2023-03-01T06:04:11;21.23;;;9.20;;
30420;SDS011;17218;54.070;10.012;2023-03-01T06:06:38;18.83;;;9.30;;
30420;SDS011;17218;54.070;10.012;2023-03-01T06:09:04;17.53;;;10.10;;
30420;SDS011;17218;54.070;10.012;2023-03-01T06:11:34;24.67;;;9.20;;
30420;SDS011;17218;54.070;10.012;2023-03-01T06:14:01;27.30;;;8.60;;
30420;SDS011;17218;54.070;10.012;2023-03-01T06:16:28;14.70;;;8.23;;
30420;SDS011;17218;54.070;10.012;2023-03-01T06:18:54;16.20;;;8.57;;
30420;SDS011;17218;54.070;10.012;2023-03-01T06:21:21;15.90;;;9.23;;
30420;SDS011;17218;54.070;10.012;2023-03-01T06:23:47;13.53;;;8.60;;
30420;SDS011;17218;54.070;10.012;2023-03-01T06:26:14;30.47;;;9.23;;
30420;SDS011;17218;54.070;10.012;2023-03-01T06:28:41;17.60;;;8.73;;
30420;SDS011;17218;54.070;10.012;2023-03-01T06:31:11;16.27;;;8.20;;
30420;SDS011;17218;54.070;10.012;2023-03-01T06:33:37;14.23;;;7.63;;
30420;SDS011;17218;54.070;10.012;2023-03-01T06:36:04;11.77;;;7.40;;
30420;SDS011;17218;54.070;10.012;2023-03-01T06:38:31;17.97;;;7.90;;
30420;SDS011;17218;54.070;10.012;2023-03-01T06:40:57;28.63;;;8.93;;
30420;SDS011;17218;54.070;10.012;2023-03-01T06:43:24;31.13;;;8.73;;
30420;SDS011;17218;54.070;10.012;2023-03-01T06:45:52;28.00;;;8.40;;
30420;SDS011;17218;54.070;10.012;2023-03-01T06:48:18;15.10;;;8.00;;
30420;SDS011;17218;54.070;10.012;2023-03-01T06:50:44;16.30;;;7.83;;
30420;SDS011;17218;54.070;10.012;2023-03-01T06:53:11;26.97;;;8.43;;
30420;SDS011;17218;54.070;10.012;2023-03-01T06:55:37;24.60;;;7.77;;
30420;SDS011;17218;54.070;10.012;2023-03-01T06:58:04;24.97;;;7.60;;
30420;SDS011;17218;54.070;10.012;2023-03-01T07:00:30;10.43;;;7.73;;
30420;SDS011;17218;54.070;10.012;2023-03-01T07:02:59;14.07;;;6.97;;
30420;SDS011;17218;54.070;10.012;2023-03-01T07:05:26;12.87;;;7.33;;
30420;SDS011;17218;54.070;10.012;2023-03-01T07:07:53;11.97;;;7.00;;
30420;SDS011;17218;54.070;10.012;2023-03-01T07:10:20;29.53;;;8.17;;
30420;SDS011;17218;54.070;10.012;2023-03-01T07:12:47;12.13;;;6.93;;
30420;SDS011;17218;54.070;10.012;2023-03-01T07:15:13;12.43;;;7.30;;
30420;SDS011;17218;54.070;10.012;2023-03-01T07:17:40;12.07;;;7.73;;
30420;SDS011;17218;54.070;10.012;2023-03-01T07:20:09;33.73;;;8.50;;
30420;SDS011;17218;54.070;10.012;2023-03-01T07:22:36;21.03;;;8.10;;
30420;SDS011;17218;54.070;10.012;2023-03-01T07:25:05;19.30;;;7.90;;
30420;SDS011;17218;54.070;10.012;2023-03-01T07:27:32;12.13;;;7.57;;
30420;SDS011;17218;54.070;10.012;2023-03-01T07:29:58;23.13;;;8.63;;
30420;SDS011;17218;54.070;10.012;2023-03-01T07:32:24;11.10;;;7.73;;
30420;SDS011;17218;54.070;10.012;2023-03-01T07:34:51;12.30;;;7.87;;
30420;SDS011;17218;54.070;10.012;2023-03-01T07:37:19;10.30;;;6.90;;
30420;SDS011;17218;54.070;10.012;2023-03-01T07:39:45;10.73;;;7.50;;
30420;SDS011;17218;54.070;10.012;2023-03-01T07:42:12;13.37;;;7.37;;
30420;SDS011;17218;54.070;10.012;2023-03-01T07:44:38;10.20;;;7.33;;
30420;SDS011;17218;54.070;10.012;2023-03-01T07:47:05;10.30;;;7.43;;
30420;SDS011;17218;54.070;10.012;2023-03-01T07:49:31;15.07;;;6.97;;
30420;SDS011;17218;54.070;10.012;2023-03-01T07:51:58;11.63;;;6.60;;
30420;SDS011;17218;54.070;10.012;2023-03-01T07:54:25;13.23;;;7.53;;
30420;SDS011;17218;54.070;10.012;2023-03-01T07:56:52;15.27;;;6.83;;
30420;SDS011;17218;54.070;10.012;2023-03-01T07:59:25;12.97;;;6.67;;
30420;SDS011;17218;54.070;10.012;2023-03-01T08:01:54;10.40;;;6.30;;
30420;SDS011;17218;54.070;10.012;2023-03-01T08:04:21;22.80;;;7.73;;
30420;SDS011;17218;54.070;10.012;2023-03-01T08:06:48;37.17;;;7.70;;
30420;SDS011;17218;54.070;10.012;2023-03-01T08:09:14;9.87;;;6.63;;
30420;SDS011;17218;54.070;10.012;2023-03-01T08:11:42;9.00;;;6.97;;
30420;SDS011;17218;54.070;10.012;2023-03-01T08:14:08;13.93;;;7.27;;
30420;SDS011;17218;54.070;10.012;2023-03-01T08:16:35;11.07;;;6.80;;
30420;SDS011;17218;54.070;10.012;2023-03-01T08:19:05;19.03;;;8.13;;
30420;SDS011;17218;54.070;10.012;2023-03-01T08:21:32;12.90;;;7.20;;
30420;SDS011;17218;54.070;10.012;2023-03-01T08:24:00;32.83;;;8.17;;
30420;SDS011;17218;54.070;10.012;2023-03-01T08:26:27;18.70;;;7.17;;
30420;SDS011;17218;54.070;10.012;2023-03-01T08:28:55;22.10;;;7.40;;
30420;SDS011;17218;54.070;10.012;2023-03-01T08:31:22;16.93;;;6.23;;
30420;SDS011;17218;54.070;10.012;2023-03-01T08:33:50;22.53;;;6.57;;
30420;SDS011;17218;54.070;10.012;2023-03-01T08:36:20;49.90;;;9.47;;
30420;SDS011;17218;54.070;10.012;2023-03-01T08:38:47;13.33;;;7.07;;
30420;SDS011;17218;54.070;10.012;2023-03-01T08:41:13;12.27;;;7.07;;
30420;SDS011;17218;54.070;10.012;2023-03-01T08:43:40;13.77;;;6.77;;
30420;SDS011;17218;54.070;10.012;2023-03-01T08:46:08;11.60;;;7.43;;
30420;SDS011;17218;54.070;10.012;2023-03-01T08:48:35;15.87;;;7.90;;
30420;SDS011;17218;54.070;10.012;2023-03-01T08:51:06;10.87;;;7.63;;
30420;SDS011;17218;54.070;10.012;2023-03-01T08:53:33;17.20;;;10.20;;
30420;SDS011;17218;54.070;10.012;2023-03-01T08:56:00;17.87;;;10.07;;
30420;SDS011;17218;54.070;10.012;2023-03-01T08:58:27;30.50;;;13.53;;
30420;SDS011;17218;54.070;10.012;2023-03-01T09:00:54;29.93;;;15.87;;
30420;SDS011;17218;54.070;10.012;2023-03-01T09:03:23;30.60;;;15.57;;
30420;SDS011;17218;54.070;10.012;2023-03-01T09:05:50;29.07;;;14.53;;
30420;SDS011;17218;54.070;10.012;2023-03-01T09:08:16;29.83;;;15.73;;
30420;SDS011;17218;54.070;10.012;2023-03-01T09:10:43;25.10;;;14.37;;
30420;SDS011;17218;54.070;10.012;2023-03-01T09:13:10;31.60;;;14.47;;
30420;SDS011;17218;54.070;10.012;2023-03-01T09:15:36;25.13;;;13.37;;
30420;SDS011;17218;54.070;10.012;2023-03-01T09:18:03;32.43;;;15.40;;
30420;SDS011;17218;54.070;10.012;2023-03-01T09:20:31;24.60;;;13.80;;
30420;SDS011;17218;54.070;10.012;2023-03-01T09:22:58;24.37;;;12.33;;
30420;SDS011;17218;54.070;10.012;2023-03-01T09:25:24;25.80;;;14.03;;
30420;SDS011;17218;54.070;10.012;2023-03-01T09:27:51;28.37;;;14.27;;
30420;SDS011;17218;54.070;10.012;2023-03-01T09:30:18;25.70;;;12.40;;
30420;SDS011;17218;54.070;10.012;2023-03-01T09:32:45;24.53;;;13.83;;
30420;SDS011;17218;54.070;10.012;2023-03-01T09:35:11;23.10;;;14.13;;
30420;SDS011;17218;54.070;10.012;2023-03-01T09:37:39;26.23;;;14.43;;
30420;SDS011;17218;54.070;10.012;2023-03-01T09:40:09;28.73;;;13.80;;
30420;SDS011;17218;54.070;10.012;2023-03-01T09:42:45;19.37;;;11.70;;
30420;SDS011;17218;54.070;10.012;2023-03-01T09:45:16;27.10;;;12.80;;
30420;SDS011;17218;54.070;10.012;2023-03-01T09:47:51;25.37;;;13.37;;
30420;SDS011;17218;54.070;10.012;2023-03-01T09:50:20;24.60;;;13.93;;
30420;SDS011;17218;54.070;10.012;2023-03-01T09:52:50;22.30;;;12.77;;
30420;SDS011;17218;54.070;10.012;2023-03-01T09:55:26;18.27;;;10.63;;
30420;SDS011;17218;54.070;10.012;2023-03-01T09:57:58;20.33;;;11.90;;
30420;SDS011;17218;54.070;10.012;2023-03-01T10:00:32;22.80;;;14.67;;
30420;SDS011;17218;54.070;10.012;2023-03-01T10:03:08;22.57;;;14.07;;
30420;SDS011;17218;54.070;10.012;2023-03-01T10:05:44;26.23;;;14.83;;
30420;SDS011;17218;54.070;10.012;2023-03-01T10:08:26;25.77;;;14.90;;
30420;SDS011;17218;54.070;10.012;2023-03-01T10:10:56;21.93;;;14.47;;
30420;SDS011;17218;54.070;10.012;2023-03-01T10:13:26;22.17;;;13.53;;
30420;SDS011;17218;54.070;10.012;2023-03-01T10:15:59;19.77;;;13.37;;
30420;SDS011;17218;54.070;10.012;2023-03-01T10:18:31;20.93;;;14.10;;
30420;SDS011;17218;54.070;10.012;2023-03-01T10:21:02;20.20;;;14.70;;
30420;SDS011;17218;54.070;10.012;2023-03-01T10:23:37;21.63;;;14.77;;
30420;SDS011;17218;54.070;10.012;2023-03-01T10:26:07;24.00;;;15.27;;
30420;SDS011;17218;54.070;10.012;2023-03-01T10:28:44;25.17;;;16.33;;
30420;SDS011;17218;54.070;10.012;2023-03-01T10:31:18;21.63;;;14.43;;
30420;SDS011;17218;54.070;10.012;2023-03-01T10:33:47;21.37;;;15.17;;
30420;SDS011;17218;54.070;10.012;2023-03-01T10:36:19;23.70;;;15.33;;
30420;SDS011;17218;54.070;10.012;2023-03-01T10:38:48;21.57;;;16.20;;
30420;SDS011;17218;54.070;10.012;2023-03-01T10:41:17;23.87;;;16.63;;
30420;SDS011;17218;54.070;10.012;2023-03-01T10:43:44;23.23;;;16.20;;
30420;SDS011;17218;54.070;10.012;2023-03-01T10:49:05;20.53;;;15.10;;
30420;SDS011;17218;54.070;10.012;2023-03-01T10:51:33;17.97;;;13.80;;
30420;SDS011;17218;54.070;10.012;2023-03-01T10:54:01;16.25;;;12.93;;
30420;SDS011;17218;54.070;10.012;2023-03-01T10:56:30;15.63;;;10.90;;
30420;SDS011;17218;54.070;10.012;2023-03-01T10:59:19;12.98;;;7.55;;
30420;SDS011;17218;54.070;10.012;2023-03-01T11:02:01;9.10;;;5.97;;
30420;SDS011;17218;54.070;10.012;2023-03-01T11:04:30;9.02;;;5.78;;
30420;SDS011;17218;54.070;10.012;2023-03-01T11:07:00;13.32;;;8.20;;
30420;SDS011;17218;54.070;10.012;2023-03-01T11:09:32;8.23;;;5.22;;
30420;SDS011;17218;54.070;10.012;2023-03-01T11:12:03;9.85;;;6.95;;
30420;SDS011;17218;54.070;10.012;2023-03-01T11:14:39;22.38;;;16.02;;
30420;SDS011;17218;54.070;10.012;2023-03-01T11:17:13;18.60;;;12.18;;
30420;SDS011;17218;54.070;10.012;2023-03-01T11:19:48;15.15;;;11.15;;
30420;SDS011;17218;54.070;10.012;2023-03-01T11:22:26;16.98;;;14.02;;
30420;SDS011;17218;54.070;10.012;2023-03-01T11:24:55;14.27;;;10.98;;
30420;SDS011;17218;54.070;10.012;2023-03-01T11:27:24;20.05;;;16.05;;
30420;SDS011;17218;54.070;10.012;2023-03-01T11:29:54;28.25;;;19.52;;
30420;SDS011;17218;54.070;10.012;2023-03-01T11:32:24;19.15;;;13.60;;
30420;SDS011;17218;54.070;10.012;2023-03-01T11:34:54;8.30;;;5.50;;
30420;SDS011;17218;54.070;10.012;2023-03-01T11:37:28;4.32;;;3.80;;
30420;SDS011;17218;54.070;10.012;2023-03-01T11:40:05;5.53;;;4.47;;
30420;SDS011;17218;54.070;10.012;2023-03-01T11:42:42;5.05;;;4.55;;
30420;SDS011;17218;54.070;10.012;2023-03-01T11:45:16;5.80;;;4.55;;
30420;SDS011;17218;54.070;10.012;2023-03-01T11:47:57;5.18;;;4.25;;
30420;SDS011;17218;54.070;10.012;2023-03-01T11:50:48;4.85;;;3.20;;
30420;SDS011;17218;54.070;10.012;2023-03-01T11:53:23;4.82;;;4.07;;
30420;SDS011;17218;54.070;10.012;2023-03-01T11:56:09;5.38;;;4.88;;
30420;SDS011;17218;54.070;10.012;2023-03-01T11:58:46;6.78;;;4.82;;
30420;SDS011;17218;54.070;10.012;2023-03-01T12:01:33;6.07;;;5.15;;
30420;SDS011;17218;54.070;10.012;2023-03-01T12:04:17;7.55;;;6.30;;
30420;SDS011;17218;54.070;10.012;2023-03-01T12:07:05;4.13;;;3.75;;
30420;SDS011;17218;54.070;10.012;2023-03-01T12:09:47;10.68;;;9.57;;
30420;SDS011;17218;54.070;10.012;2023-03-01T12:12:28;25.60;;;21.25;;
30420;SDS011;17218;54.070;10.012;2023-03-01T12:21:04;3.10;;;2.80;;
30420;SDS011;17218;54.070;10.012;2023-03-01T12:23:56;3.13;;;2.88;;
30420;SDS011;17218;54.070;10.012;2023-03-01T12:26:43;3.10;;;2.90;;
30420;SDS011;17218;54.070;10.012;2023-03-01T12:29:21;3.53;;;2.70;;
30420;SDS011;17218;54.070;10.012;2023-03-01T12:31:59;2.70;;;2.50;;
30420;SDS011;17218;54.070;10.012;2023-03-01T12:37:33;3.20;;;3.00;;
30420;SDS011;17218;54.070;10.012;2023-03-01T12:40:17;3.10;;;2.90;;
30420;SDS011;17218;54.070;10.012;2023-03-01T12:42:57;3.15;;;2.85;;
30420;SDS011;17218;54.070;10.012;2023-03-01T12:45:43;2.78;;;2.58;;
30420;SDS011;17218;54.070;10.012;2023-03-01T12:48:24;3.15;;;2.85;;
30420;SDS011;17218;54.070;10.012;2023-03-01T12:51:03;2.72;;;2.53;;
30420;SDS011;17218;54.070;10.012;2023-03-01T12:53:34;3.22;;;2.75;;
30420;SDS011;17218;54.070;10.012;2023-03-01T12:56:05;3.10;;;2.80;;
30420;SDS011;17218;54.070;10.012;2023-03-01T12:58:35;2.97;;;2.78;;
30420;SDS011;17218;54.070;10.012;2023-03-01T13:01:15;3.80;;;3.50;;
30420;SDS011;17218;54.070;10.012;2023-03-01T13:03:56;6.05;;;5.55;;
30420;SDS011;17218;54.070;10.012;2023-03-01T13:06:38;5.47;;;4.97;;
30420;SDS011;17218;54.070;10.012;2023-03-01T13:09:11;5.32;;;4.82;;
30420;SDS011;17218;54.070;10.012;2023-03-01T13:11:46;4.18;;;3.55;;
30420;SDS011;17218;54.070;10.012;2023-03-01T13:17:03;4.00;;;3.13;;
30420;SDS011;17218;54.070;10.012;2023-03-01T13:19:29;3.72;;;3.42;;
30420;SDS011;17218;54.070;10.012;2023-03-01T13:21:57;7.03;;;6.32;;
30420;SDS011;17218;54.070;10.012;2023-03-01T13:24:25;4.57;;;3.95;;
30420;SDS011;17218;54.070;10.012;2023-03-01T13:29:50;4.25;;;3.58;;
30420;SDS011;17218;54.070;10.012;2023-03-01T13:32:20;6.60;;;4.20;;
30420;SDS011;17218;54.070;10.012;2023-03-01T13:34:49;4.30;;;3.90;;
30420;SDS011;17218;54.070;10.012;2023-03-01T13:37:19;5.63;;;3.38;;
30420;SDS011;17218;54.070;10.012;2023-03-01T13:43:30;4.20;;;3.90;;
30420;SDS011;17218;54.070;10.012;2023-03-01T13:45:58;5.32;;;4.82;;
30420;SDS011;17218;54.070;10.012;2023-03-01T13:48:29;4.55;;;3.97;;
30420;SDS011;17218;54.070;10.012;2023-03-01T13:50:58;3.97;;;3.65;;
30420;SDS011;17218;54.070;10.012;2023-03-01T13:53:27;3.53;;;3.30;;
30420;SDS011;17218;54.070;10.012;2023-03-01T13:55:58;3.50;;;3.20;;
30420;SDS011;17218;54.070;10.012;2023-03-01T13:58:28;5.15;;;3.90;;
30420;SDS011;17218;54.070;10.012;2023-03-01T14:00:58;4.20;;;3.90;;
30420;SDS011;17218;54.070;10.012;2023-03-01T14:03:28;3.75;;;3.55;;
30420;SDS011;17218;54.070;10.012;2023-03-01T14:05:58;4.10;;;3.80;;
30420;SDS011;17218;54.070;10.012;2023-03-01T14:08:27;4.03;;;3.65;;
30420;SDS011;17218;54.070;10.012;2023-03-01T14:14:00;3.75;;;3.38;;
30420;SDS011;17218;54.070;10.012;2023-03-01T14:16:37;3.90;;;3.60;;
30420;SDS011;17218;54.070;10.012;2023-03-01T14:19:16;4.40;;;4.00;;
30420;SDS011;17218;54.070;10.012;2023-03-01T14:21:45;4.18;;;3.88;;
30420;SDS011;17218;54.070;10.012;2023-03-01T14:24:20;3.85;;;3.35;;
30420;SDS011;17218;54.070;10.012;2023-03-01T14:26:48;3.55;;;3.33;;
30420;SDS011;17218;54.070;10.012;2023-03-01T14:29:25;3.63;;;3.33;;
30420;SDS011;17218;54.070;10.012;2023-03-01T14:31:53;4.20;;;3.90;;
30420;SDS011;17218;54.070;10.012;2023-03-01T14:34:22;4.65;;;4.25;;
30420;SDS011;17218;54.070;10.012;2023-03-01T14:36:50;4.45;;;4.10;;
30420;SDS011;17218;54.070;10.012;2023-03-01T14:39:17;5.05;;;4.65;;
30420;SDS011;17218;54.070;10.012;2023-03-01T14:41:45;5.90;;;5.40;;
30420;SDS011;17218;54.070;10.012;2023-03-01T14:44:12;6.90;;;6.20;;
30420;SDS011;17218;54.070;10.012;2023-03-01T14:46:43;6.30;;;5.65;;
30420;SDS011;17218;54.070;10.012;2023-03-01T14:49:12;6.15;;;5.65;;
30420;SDS011;17218;54.070;10.012;2023-03-01T14:51:42;6.32;;;5.72;;
30420;SDS011;17218;54.070;10.012;2023-03-01T14:54:18;5.28;;;4.78;;
30420;SDS011;17218;54.070;10.012;2023-03-01T14:56:47;4.72;;;4.32;;